sensor_id;sensor_type;location;lat;lon;timestamp;P1;durP1;ratioP1;P2;durP2;ratioP2
20101;SDS011;10210;52.284;9.892;2023-06-26T00:01:16;9.80;;;4.43;;
20101;SDS011;10210;52.284;9.892;2023-06-26T00:03:46;11.67;;;4.93;;
20101;SDS011;10210;52.284;9.892;2023-06-26T00:06:12;10.50;;;5.00;;
20101;SDS011;10210;52.284;9.892;2023-06-26T00:08:38;11.80;;;5.20;;
20101;SDS011;10210;52.284;9.892;2023-06-26T00:11:04;10.97;;;5.20;;
20101;SDS011;10210;52.284;9.892;2023-06-26T00:13:30;10.07;;;4.70;;
20101;SDS011;10210;52.284;9.892;2023-06-26T00:15:55;11.80;;;5.17;;
20101;SDS011;10210;52.284;9.892;2023-06-26T00:18:21;11.50;;;5.27;;
20101;SDS011;10210;52.284;9.892;2023-06-26T00:20:48;10.30;;;4.77;;
20101;SDS011;10210;52.284;9.892;2023-06-26T00:23:15;10.10;;;4.87;;
20101;SDS011;10210;52.284;9.892;2023-06-26T00:25:42;10.63;;;4.73;;
20101;SDS011;10210;52.284;9.892;2023-06-26T00:28:08;10.93;;;4.97;;
20101;SDS011;10210;52.284;9.892;2023-06-26T00:30:34;11.93;;;5.37;;
20101;SDS011;10210;52.284;9.892;2023-06-26T00:33:00;10.50;;;4.97;;
20101;SDS011;10210;52.284;9.892;2023-06-26T00:35:26;11.20;;;4.97;;
20101;SDS011;10210;52.284;9.892;2023-06-26T00:37:52;10.83;;;4.63;;
20101;SDS011;10210;52.284;9.892;2023-06-26T00:40:18;10.83;;;4.63;;
20101;SDS011;10210;52.284;9.892;2023-06-26T00:42:44;10.23;;;4.77;;
20101;SDS011;10210;52.284;9.892;2023-06-26T00:45:10;11.60;;;4.50;;
20101;SDS011;10210;52.284;9.892;2023-06-26T00:47:35;10.90;;;4.70;;
20101;SDS011;10210;52.284;9.892;2023-06-26T00:50:02;10.90;;;4.67;;
20101;SDS011;10210;52.284;9.892;2023-06-26T00:52:29;10.87;;;4.67;;
20101;SDS011;10210;52.284;9.892;2023-06-26T00:54:56;10.63;;;4.50;;
20101;SDS011;10210;52.284;9.892;2023-06-26T00:57:23;9.17;;;3.97;;
20101;SDS011;10210;52.284;9.892;2023-06-26T00:59:49;9.63;;;4.13;;
20101;SDS011;10210;52.284;9.892;2023-06-26T01:02:15;10.80;;;4.07;;
20101;SDS011;10210;52.284;9.892;2023-06-26T01:04:54;10.67;;;4.33;;
20101;SDS011;10210;52.284;9.892;2023-06-26T01:07:19;10.20;;;4.00;;
20101;SDS011;10210;52.284;9.892;2023-06-26T01:09:48;9.17;;;3.93;;
20101;SDS011;10210;52.284;9.892;2023-06-26T01:12:14;11.30;;;4.37;;
20101;SDS011;10210;52.284;9.892;2023-06-26T01:14:41;9.23;;;3.97;;
20101;SDS011;10210;52.284;9.892;2023-06-26T01:17:06;8.90;;;4.00;;
20101;SDS011;10210;52.284;9.892;2023-06-26T01:19:36;8.27;;;3.70;;
20101;SDS011;10210;52.284;9.892;2023-06-26T01:25:12;8.40;;;3.87;;
20101;SDS011;10210;52.284;9.892;2023-06-26T01:27:47;10.03;;;3.90;;
20101;SDS011;10210;52.284;9.892;2023-06-26T01:30:15;9.63;;;4.17;;
20101;SDS011;10210;52.284;9.892;2023-06-26T01:32:43;9.93;;;3.70;;
20101;SDS011;10210;52.284;9.892;2023-06-26T01:35:09;8.83;;;4.00;;
20101;SDS011;10210;52.284;9.892;2023-06-26T01:37:37;8.83;;;3.90;;
20101;SDS011;10210;52.284;9.892;2023-06-26T01:40:03;10.23;;;4.23;;
20101;SDS011;10210;52.284;9.892;2023-06-26T01:42:32;11.03;;;4.30;;
20101;SDS011;10210;52.284;9.892;2023-06-26T01:45:00;10.50;;;3.90;;
20101;SDS011;10210;52.284;9.892;2023-06-26T01:47:35;10.57;;;4.30;;
20101;SDS011;10210;52.284;9.892;2023-06-26T01:50:12;9.87;;;4.03;;
20101;SDS011;10210;52.284;9.892;2023-06-26T01:52:49;11.30;;;4.47;;
20101;SDS011;10210;52.284;9.892;2023-06-26T01:55:31;11.00;;;4.87;;
20101;SDS011;10210;52.284;9.892;2023-06-26T01:58:07;10.40;;;4.13;;
20101;SDS011;10210;52.284;9.892;2023-06-26T02:00:34;10.13;;;4.03;;
20101;SDS011;10210;52.284;9.892;2023-06-26T02:03:01;10.57;;;4.53;;
20101;SDS011;10210;52.284;9.892;2023-06-26T02:05:28;11.00;;;4.30;;
20101;SDS011;10210;52.284;9.892;2023-06-26T02:07:55;11.97;;;4.87;;
20101;SDS011;10210;52.284;9.892;2023-06-26T02:10:21;10.63;;;4.50;;
20101;SDS011;10210;52.284;9.892;2023-06-26T02:12:47;10.33;;;4.50;;
20101;SDS011;10210;52.284;9.892;2023-06-26T02:15:12;10.80;;;4.53;;
20101;SDS011;10210;52.284;9.892;2023-06-26T02:17:38;9.70;;;4.43;;
20101;SDS011;10210;52.284;9.892;2023-06-26T02:20:04;9.53;;;4.10;;
20101;SDS011;10210;52.284;9.892;2023-06-26T02:22:31;10.20;;;4.03;;
20101;SDS011;10210;52.284;9.892;2023-06-26T02:24:56;10.30;;;4.47;;
20101;SDS011;10210;52.284;9.892;2023-06-26T02:27:22;10.23;;;4.43;;
20101;SDS011;10210;52.284;9.892;2023-06-26T02:29:48;9.80;;;4.30;;
20101;SDS011;10210;52.284;9.892;2023-06-26T02:32:14;10.90;;;4.13;;
20101;SDS011;10210;52.284;9.892;2023-06-26T02:34:39;9.43;;;3.90;;
20101;SDS011;10210;52.284;9.892;2023-06-26T02:37:05;9.10;;;4.10;;
20101;SDS011;10210;52.284;9.892;2023-06-26T02:39:32;10.50;;;4.00;;
20101;SDS011;10210;52.284;9.892;2023-06-26T02:41:59;11.93;;;4.00;;
20101;SDS011;10210;52.284;9.892;2023-06-26T02:44:25;10.00;;;4.17;;
20101;SDS011;10210;52.284;9.892;2023-06-26T02:46:50;10.37;;;3.93;;
20101;SDS011;10210;52.284;9.892;2023-06-26T02:49:16;9.90;;;4.10;;
20101;SDS011;10210;52.284;9.892;2023-06-26T02:51:42;8.97;;;3.83;;
20101;SDS011;10210;52.284;9.892;2023-06-26T02:54:08;10.97;;;4.10;;
20101;SDS011;10210;52.284;9.892;2023-06-26T02:56:33;8.23;;;3.60;;
20101;SDS011;10210;52.284;9.892;2023-06-26T02:58:59;9.17;;;4.10;;
20101;SDS011;10210;52.284;9.892;2023-06-26T03:01:25;11.53;;;4.17;;
20101;SDS011;10210;52.284;9.892;2023-06-26T03:03:51;11.23;;;4.50;;
20101;SDS011;10210;52.284;9.892;2023-06-26T03:06:17;10.23;;;3.93;;
20101;SDS011;10210;52.284;9.892;2023-06-26T03:08:43;11.83;;;4.10;;
20101;SDS011;10210;52.284;9.892;2023-06-26T03:11:09;10.17;;;4.40;;
20101;SDS011;10210;52.284;9.892;2023-06-26T03:13:35;9.67;;;3.87;;
20101;SDS011;10210;52.284;9.892;2023-06-26T03:16:02;10.50;;;4.10;;
20101;SDS011;10210;52.284;9.892;2023-06-26T03:18:28;8.53;;;3.63;;
20101;SDS011;10210;52.284;9.892;2023-06-26T03:20:57;8.90;;;4.00;;
20101;SDS011;10210;52.284;9.892;2023-06-26T03:23:23;10.00;;;4.00;;
20101;SDS011;10210;52.284;9.892;2023-06-26T03:25:49;8.60;;;3.70;;
20101;SDS011;10210;52.284;9.892;2023-06-26T03:28:15;11.63;;;4.00;;
20101;SDS011;10210;52.284;9.892;2023-06-26T03:30:41;10.53;;;4.00;;
20101;SDS011;10210;52.284;9.892;2023-06-26T03:33:07;9.40;;;3.90;;
20101;SDS011;10210;52.284;9.892;2023-06-26T03:35:33;9.47;;;4.23;;
20101;SDS011;10210;52.284;9.892;2023-06-26T03:37:58;10.07;;;4.10;;
20101;SDS011;10210;52.284;9.892;2023-06-26T03:40:25;9.10;;;3.90;;
20101;SDS011;10210;52.284;9.892;2023-06-26T03:42:52;9.53;;;3.90;;
20101;SDS011;10210;52.284;9.892;2023-06-26T03:45:17;12.03;;;4.57;;
20101;SDS011;10210;52.284;9.892;2023-06-26T03:47:44;10.07;;;4.20;;
20101;SDS011;10210;52.284;9.892;2023-06-26T03:50:13;10.03;;;3.90;;
20101;SDS011;10210;52.284;9.892;2023-06-26T03:52:42;11.10;;;4.30;;
20101;SDS011;10210;52.284;9.892;2023-06-26T03:55:08;9.97;;;4.20;;
20101;SDS011;10210;52.284;9.892;2023-06-26T03:57:34;10.93;;;4.13;;
20101;SDS011;10210;52.284;9.892;2023-06-26T04:00:00;11.67;;;4.53;;
20101;SDS011;10210;52.284;9.892;2023-06-26T04:02:25;12.27;;;4.33;;
20101;SDS011;10210;52.284;9.892;2023-06-26T04:04:51;9.97;;;4.10;;
20101;SDS011;10210;52.284;9.892;2023-06-26T04:07:17;11.13;;;4.43;;
20101;SDS011;10210;52.284;9.892;2023-06-26T04:09:43;11.30;;;4.43;;
20101;SDS011;10210;52.284;9.892;2023-06-26T04:12:09;11.10;;;4.47;;
20101;SDS011;10210;52.284;9.892;2023-06-26T04:14:35;10.67;;;3.90;;
20101;SDS011;10210;52.284;9.892;2023-06-26T04:17:01;9.90;;;4.23;;
20101;SDS011;10210;52.284;9.892;2023-06-26T04:19:28;10.97;;;4.23;;
20101;SDS011;10210;52.284;9.892;2023-06-26T04:21:54;8.97;;;3.70;;
20101;SDS011;10210;52.284;9.892;2023-06-26T04:24:20;8.47;;;3.57;;
20101;SDS011;10210;52.284;9.892;2023-06-26T04:26:46;8.17;;;4.03;;
20101;SDS011;10210;52.284;9.892;2023-06-26T04:29:12;9.40;;;4.07;;
20101;SDS011;10210;52.284;9.892;2023-06-26T04:31:38;10.63;;;4.03;;
20101;SDS011;10210;52.284;9.892;2023-06-26T04:34:04;9.70;;;4.00;;
20101;SDS011;10210;52.284;9.892;2023-06-26T04:36:30;8.67;;;3.70;;
20101;SDS011;10210;52.284;9.892;2023-06-26T04:38:56;9.77;;;3.83;;
20101;SDS011;10210;52.284;9.892;2023-06-26T04:41:23;11.43;;;3.67;;
20101;SDS011;10210;52.284;9.892;2023-06-26T04:43:49;8.83;;;3.60;;
20101;SDS011;10210;52.284;9.892;2023-06-26T04:46:15;8.67;;;3.60;;
20101;SDS011;10210;52.284;9.892;2023-06-26T04:48:41;9.13;;;3.83;;
20101;SDS011;10210;52.284;9.892;2023-06-26T04:51:07;9.90;;;3.97;;
20101;SDS011;10210;52.284;9.892;2023-06-26T04:53:33;12.30;;;4.10;;
20101;SDS011;10210;52.284;9.892;2023-06-26T04:55:58;10.07;;;4.17;;
20101;SDS011;10210;52.284;9.892;2023-06-26T04:58:24;9.83;;;4.20;;
20101;SDS011;10210;52.284;9.892;2023-06-26T05:00:50;10.40;;;4.53;;
20101;SDS011;10210;52.284;9.892;2023-06-26T05:03:16;10.43;;;4.57;;
20101;SDS011;10210;52.284;9.892;2023-06-26T05:05:42;12.43;;;4.63;;
20101;SDS011;10210;52.284;9.892;2023-06-26T05:08:18;9.03;;;3.83;;
20101;SDS011;10210;52.284;9.892;2023-06-26T05:10:48;10.47;;;4.20;;
20101;SDS011;10210;52.284;9.892;2023-06-26T05:13:14;10.13;;;4.50;;
20101;SDS011;10210;52.284;9.892;2023-06-26T05:15:43;9.77;;;4.00;;
20101;SDS011;10210;52.284;9.892;2023-06-26T05:18:09;11.07;;;4.60;;
20101;SDS011;10210;52.284;9.892;2023-06-26T05:20:35;9.50;;;4.10;;
20101;SDS011;10210;52.284;9.892;2023-06-26T05:23:02;9.33;;;4.20;;
20101;SDS011;10210;52.284;9.892;2023-06-26T05:25:29;9.80;;;4.10;;
20101;SDS011;10210;52.284;9.892;2023-06-26T05:27:58;9.43;;;4.30;;
20101;SDS011;10210;52.284;9.892;2023-06-26T05:30:25;11.00;;;4.53;;
20101;SDS011;10210;52.284;9.892;2023-06-26T05:32:52;9.67;;;4.30;;
20101;SDS011;10210;52.284;9.892;2023-06-26T05:35:20;11.67;;;4.70;;
20101;SDS011;10210;52.284;9.892;2023-06-26T05:37:48;12.10;;;4.93;;
20101;SDS011;10210;52.284;9.892;2023-06-26T05:40:15;13.17;;;5.27;;
20101;SDS011;10210;52.284;9.892;2023-06-26T05:42:45;10.77;;;4.53;;
20101;SDS011;10210;52.284;9.892;2023-06-26T05:45:11;11.13;;;5.03;;
20101;SDS011;10210;52.284;9.892;2023-06-26T05:47:37;12.30;;;5.20;;
20101;SDS011;10210;52.284;9.892;2023-06-26T05:50:03;10.60;;;4.70;;
20101;SDS011;10210;52.284;9.892;2023-06-26T05:52:29;11.10;;;4.70;;
20101;SDS011;10210;52.284;9.892;2023-06-26T05:54:56;12.20;;;4.60;;
20101;SDS011;10210;52.284;9.892;2023-06-26T05:57:25;14.90;;;5.80;;
20101;SDS011;10210;52.284;9.892;2023-06-26T05:59:54;12.80;;;4.97;;
20101;SDS011;10210;52.284;9.892;2023-06-26T06:02:21;9.93;;;4.40;;
20101;SDS011;10210;52.284;9.892;2023-06-26T06:04:48;10.63;;;4.50;;
20101;SDS011;10210;52.284;9.892;2023-06-26T06:07:14;10.70;;;4.57;;
20101;SDS011;10210;52.284;9.892;2023-06-26T06:09:40;13.87;;;4.60;;
20101;SDS011;10210;52.284;9.892;2023-06-26T06:12:06;10.60;;;4.63;;
20101;SDS011;10210;52.284;9.892;2023-06-26T06:14:33;11.70;;;4.90;;
20101;SDS011;10210;52.284;9.892;2023-06-26T06:16:59;10.47;;;4.33;;
20101;SDS011;10210;52.284;9.892;2023-06-26T06:19:26;10.60;;;4.40;;
20101;SDS011;10210;52.284;9.892;2023-06-26T06:21:52;9.13;;;4.17;;
20101;SDS011;10210;52.284;9.892;2023-06-26T06:24:18;11.67;;;5.00;;
20101;SDS011;10210;52.284;9.892;2023-06-26T06:26:44;11.60;;;4.60;;
20101;SDS011;10210;52.284;9.892;2023-06-26T06:29:11;11.87;;;5.00;;
20101;SDS011;10210;52.284;9.892;2023-06-26T06:31:36;10.70;;;4.80;;
20101;SDS011;10210;52.284;9.892;2023-06-26T06:34:02;11.17;;;4.80;;
20101;SDS011;10210;52.284;9.892;2023-06-26T06:36:28;10.33;;;4.30;;
20101;SDS011;10210;52.284;9.892;2023-06-26T06:38:53;11.70;;;4.67;;
20101;SDS011;10210;52.284;9.892;2023-06-26T06:41:19;10.40;;;4.70;;
20101;SDS011;10210;52.284;9.892;2023-06-26T06:43:45;11.10;;;4.80;;
20101;SDS011;10210;52.284;9.892;2023-06-26T06:46:11;12.53;;;5.00;;
20101;SDS011;10210;52.284;9.892;2023-06-26T06:48:37;12.47;;;4.97;;
20101;SDS011;10210;52.284;9.892;2023-06-26T06:51:03;11.20;;;5.07;;
20101;SDS011;10210;52.284;9.892;2023-06-26T06:53:28;11.37;;;4.97;;
20101;SDS011;10210;52.284;9.892;2023-06-26T06:55:55;11.20;;;5.17;;
20101;SDS011;10210;52.284;9.892;2023-06-26T06:58:20;12.47;;;4.83;;
20101;SDS011;10210;52.284;9.892;2023-06-26T07:00:47;12.30;;;4.80;;
20101;SDS011;10210;52.284;9.892;2023-06-26T07:03:14;10.98;;;4.97;;
20101;SDS011;10210;52.284;9.892;2023-06-26T07:05:42;11.02;;;5.13;;
20101;SDS011;10210;52.284;9.892;2023-06-26T07:08:08;12.27;;;4.60;;
20101;SDS011;10210;52.284;9.892;2023-06-26T07:10:34;9.93;;;4.05;;
20101;SDS011;10210;52.284;9.892;2023-06-26T07:13:00;10.30;;;4.45;;
20101;SDS011;10210;52.284;9.892;2023-06-26T07:15:26;10.98;;;4.47;;
20101;SDS011;10210;52.284;9.892;2023-06-26T07:17:51;11.45;;;4.65;;
20101;SDS011;10210;52.284;9.892;2023-06-26T07:20:17;10.10;;;4.35;;
20101;SDS011;10210;52.284;9.892;2023-06-26T07:22:43;10.25;;;4.43;;
20101;SDS011;10210;52.284;9.892;2023-06-26T07:25:10;9.60;;;4.25;;
20101;SDS011;10210;52.284;9.892;2023-06-26T07:27:39;9.57;;;4.40;;
20101;SDS011;10210;52.284;9.892;2023-06-26T07:30:06;10.50;;;4.43;;
20101;SDS011;10210;52.284;9.892;2023-06-26T07:32:36;10.43;;;4.38;;
20101;SDS011;10210;52.284;9.892;2023-06-26T07:35:04;11.05;;;4.60;;
20101;SDS011;10210;52.284;9.892;2023-06-26T07:37:30;12.32;;;4.60;;
20101;SDS011;10210;52.284;9.892;2023-06-26T07:39:56;10.48;;;4.57;;
20101;SDS011;10210;52.284;9.892;2023-06-26T07:42:22;9.27;;;3.95;;
20101;SDS011;10210;52.284;9.892;2023-06-26T07:44:48;10.23;;;4.43;;
20101;SDS011;10210;52.284;9.892;2023-06-26T07:47:14;10.07;;;4.03;;
20101;SDS011;10210;52.284;9.892;2023-06-26T07:49:40;12.60;;;4.72;;
20101;SDS011;10210;52.284;9.892;2023-06-26T07:52:06;9.30;;;4.43;;
20101;SDS011;10210;52.284;9.892;2023-06-26T07:54:35;11.80;;;4.32;;
20101;SDS011;10210;52.284;9.892;2023-06-26T07:57:02;10.25;;;4.78;;
20101;SDS011;10210;52.284;9.892;2023-06-26T07:59:33;8.45;;;4.10;;
20101;SDS011;10210;52.284;9.892;2023-06-26T08:02:00;10.15;;;4.50;;
20101;SDS011;10210;52.284;9.892;2023-06-26T08:04:27;9.75;;;4.45;;
20101;SDS011;10210;52.284;9.892;2023-06-26T08:07:02;9.98;;;4.55;;
20101;SDS011;10210;52.284;9.892;2023-06-26T08:09:31;10.35;;;4.57;;
20101;SDS011;10210;52.284;9.892;2023-06-26T08:11:57;10.48;;;4.63;;
20101;SDS011;10210;52.284;9.892;2023-06-26T08:14:23;10.63;;;4.80;;
20101;SDS011;10210;52.284;9.892;2023-06-26T08:16:49;10.50;;;4.47;;
20101;SDS011;10210;52.284;9.892;2023-06-26T08:19:16;11.73;;;4.78;;
20101;SDS011;10210;52.284;9.892;2023-06-26T08:21:43;10.20;;;4.63;;
20101;SDS011;10210;52.284;9.892;2023-06-26T08:24:11;10.68;;;4.50;;
20101;SDS011;10210;52.284;9.892;2023-06-26T08:26:38;11.60;;;4.55;;
20101;SDS011;10210;52.284;9.892;2023-06-26T08:29:04;9.55;;;4.45;;
20101;SDS011;10210;52.284;9.892;2023-06-26T08:31:36;10.82;;;5.00;;
20101;SDS011;10210;52.284;9.892;2023-06-26T08:34:03;10.60;;;4.75;;
20101;SDS011;10210;52.284;9.892;2023-06-26T08:36:30;9.57;;;4.50;;
20101;SDS011;10210;52.284;9.892;2023-06-26T08:39:00;10.77;;;4.63;;
20101;SDS011;10210;52.284;9.892;2023-06-26T08:41:26;10.60;;;4.80;;
20101;SDS011;10210;52.284;9.892;2023-06-26T08:43:52;10.80;;;4.80;;
20101;SDS011;10210;52.284;9.892;2023-06-26T08:46:19;9.45;;;4.70;;
20101;SDS011;10210;52.284;9.892;2023-06-26T08:48:48;10.57;;;4.40;;
20101;SDS011;10210;52.284;9.892;2023-06-26T08:51:20;10.05;;;4.78;;
20101;SDS011;10210;52.284;9.892;2023-06-26T08:56:32;11.75;;;5.00;;
20101;SDS011;10210;52.284;9.892;2023-06-26T08:59:06;11.32;;;4.93;;
20101;SDS011;10210;52.284;9.892;2023-06-26T09:01:35;10.95;;;5.03;;
20101;SDS011;10210;52.284;9.892;2023-06-26T09:04:02;10.30;;;4.85;;
20101;SDS011;10210;52.284;9.892;2023-06-26T09:06:28;10.00;;;5.03;;
20101;SDS011;10210;52.284;9.892;2023-06-26T09:08:54;10.55;;;4.90;;
20101;SDS011;10210;52.284;9.892;2023-06-26T09:11:20;11.23;;;5.28;;
20101;SDS011;10210;52.284;9.892;2023-06-26T09:13:47;11.02;;;5.30;;
20101;SDS011;10210;52.284;9.892;2023-06-26T09:16:13;12.23;;;5.65;;
20101;SDS011;10210;52.284;9.892;2023-06-26T09:18:40;12.55;;;5.43;;
20101;SDS011;10210;52.284;9.892;2023-06-26T09:21:09;13.95;;;5.68;;
20101;SDS011;10210;52.284;9.892;2023-06-26T09:23:36;11.38;;;5.00;;
20101;SDS011;10210;52.284;9.892;2023-06-26T09:26:05;11.27;;;5.38;;
20101;SDS011;10210;52.284;9.892;2023-06-26T09:28:34;11.65;;;5.68;;
20101;SDS011;10210;52.284;9.892;2023-06-26T09:31:04;12.20;;;5.75;;
20101;SDS011;10210;52.284;9.892;2023-06-26T09:33:34;12.90;;;5.60;;
20101;SDS011;10210;52.284;9.892;2023-06-26T09:36:01;12.27;;;5.80;;
20101;SDS011;10210;52.284;9.892;2023-06-26T09:38:37;11.95;;;5.70;;
20101;SDS011;10210;52.284;9.892;2023-06-26T09:41:03;14.07;;;6.43;;
20101;SDS011;10210;52.284;9.892;2023-06-26T09:43:28;13.35;;;6.55;;
20101;SDS011;10210;52.284;9.892;2023-06-26T09:45:56;13.15;;;6.15;;
20101;SDS011;10210;52.284;9.892;2023-06-26T09:48:22;13.00;;;5.88;;
20101;SDS011;10210;52.284;9.892;2023-06-26T09:50:48;14.05;;;6.30;;
20101;SDS011;10210;52.284;9.892;2023-06-26T09:53:14;12.40;;;6.32;;
20101;SDS011;10210;52.284;9.892;2023-06-26T09:55:43;12.98;;;5.47;;
20101;SDS011;10210;52.284;9.892;2023-06-26T09:58:12;14.02;;;6.65;;
20101;SDS011;10210;52.284;9.892;2023-06-26T10:00:42;12.07;;;6.10;;
20101;SDS011;10210;52.284;9.892;2023-06-26T10:03:08;13.20;;;6.20;;
20101;SDS011;10210;52.284;9.892;2023-06-26T10:05:37;12.43;;;6.13;;
20101;SDS011;10210;52.284;9.892;2023-06-26T10:08:04;13.48;;;6.30;;
20101;SDS011;10210;52.284;9.892;2023-06-26T10:10:32;12.32;;;6.10;;
20101;SDS011;10210;52.284;9.892;2023-06-26T10:13:04;14.95;;;6.80;;
20101;SDS011;10210;52.284;9.892;2023-06-26T10:15:43;13.50;;;7.32;;
20101;SDS011;10210;52.284;9.892;2023-06-26T10:18:11;14.48;;;7.65;;
20101;SDS011;10210;52.284;9.892;2023-06-26T10:20:42;16.05;;;7.63;;
20101;SDS011;10210;52.284;9.892;2023-06-26T10:23:12;16.15;;;7.72;;
20101;SDS011;10210;52.284;9.892;2023-06-26T10:25:42;13.48;;;7.40;;
20101;SDS011;10210;52.284;9.892;2023-06-26T10:28:13;15.02;;;7.50;;
20101;SDS011;10210;52.284;9.892;2023-06-26T10:30:41;14.73;;;7.90;;
20101;SDS011;10210;52.284;9.892;2023-06-26T10:33:12;14.13;;;7.47;;
20101;SDS011;10210;52.284;9.892;2023-06-26T10:35:45;15.32;;;8.57;;
20101;SDS011;10210;52.284;9.892;2023-06-26T10:38:11;17.70;;;8.10;;
20101;SDS011;10210;52.284;9.892;2023-06-26T10:40:44;15.43;;;7.70;;
20101;SDS011;10210;52.284;9.892;2023-06-26T10:43:13;15.65;;;8.35;;
20101;SDS011;10210;52.284;9.892;2023-06-26T10:45:47;16.90;;;7.95;;
20101;SDS011;10210;52.284;9.892;2023-06-26T10:48:17;18.57;;;8.03;;
20101;SDS011;10210;52.284;9.892;2023-06-26T10:50:43;15.90;;;7.93;;
20101;SDS011;10210;52.284;9.892;2023-06-26T10:55:56;14.40;;;8.03;;
20101;SDS011;10210;52.284;9.892;2023-06-26T10:58:28;13.23;;;6.67;;
20101;SDS011;10210;52.284;9.892;2023-06-26T11:04:09;13.67;;;6.33;;
20101;SDS011;10210;52.284;9.892;2023-06-26T11:06:36;13.73;;;6.83;;
20101;SDS011;10210;52.284;9.892;2023-06-26T11:14:24;14.50;;;7.00;;
20101;SDS011;10210;52.284;9.892;2023-06-26T11:16:58;13.80;;;6.77;;
20101;SDS011;10210;52.284;9.892;2023-06-26T11:19:27;20.17;;;7.50;;
20101;SDS011;10210;52.284;9.892;2023-06-26T11:21:57;13.90;;;6.80;;
20101;SDS011;10210;52.284;9.892;2023-06-26T11:24:25;15.97;;;6.97;;
20101;SDS011;10210;52.284;9.892;2023-06-26T11:26:53;15.47;;;7.00;;
20101;SDS011;10210;52.284;9.892;2023-06-26T11:29:19;14.83;;;7.17;;
20101;SDS011;10210;52.284;9.892;2023-06-26T11:31:46;14.37;;;6.97;;
20101;SDS011;10210;52.284;9.892;2023-06-26T11:34:12;14.23;;;7.47;;
20101;SDS011;10210;52.284;9.892;2023-06-26T11:36:41;16.33;;;7.47;;
20101;SDS011;10210;52.284;9.892;2023-06-26T11:39:09;15.90;;;7.10;;
20101;SDS011;10210;52.284;9.892;2023-06-26T11:41:36;13.40;;;6.80;;
20101;SDS011;10210;52.284;9.892;2023-06-26T11:44:04;13.30;;;6.73;;
20101;SDS011;10210;52.284;9.892;2023-06-26T11:46:35;15.23;;;6.57;;
20101;SDS011;10210;52.284;9.892;2023-06-26T11:49:03;16.37;;;6.67;;
20101;SDS011;10210;52.284;9.892;2023-06-26T11:51:30;13.80;;;6.53;;
20101;SDS011;10210;52.284;9.892;2023-06-26T11:53:55;15.87;;;7.07;;
20101;SDS011;10210;52.284;9.892;2023-06-26T11:56:21;13.73;;;6.30;;
20101;SDS011;10210;52.284;9.892;2023-06-26T11:59:00;13.40;;;6.37;;
20101;SDS011;10210;52.284;9.892;2023-06-26T12:01:33;14.73;;;7.50;;
20101;SDS011;10210;52.284;9.892;2023-06-26T12:04:05;18.40;;;7.10;;
20101;SDS011;10210;52.284;9.892;2023-06-26T12:06:34;14.67;;;6.90;;
20101;SDS011;10210;52.284;9.892;2023-06-26T12:09:09;16.50;;;8.10;;
20101;SDS011;10210;52.284;9.892;2023-06-26T12:11:38;14.30;;;7.07;;
20101;SDS011;10210;52.284;9.892;2023-06-26T12:14:12;14.23;;;6.50;;
20101;SDS011;10210;52.284;9.892;2023-06-26T12:16:38;12.57;;;6.27;;
20101;SDS011;10210;52.284;9.892;2023-06-26T12:19:06;14.97;;;6.50;;
20101;SDS011;10210;52.284;9.892;2023-06-26T12:24:02;14.17;;;5.30;;
20101;SDS011;10210;52.284;9.892;2023-06-26T12:26:32;11.57;;;4.87;;
20101;SDS011;10210;52.284;9.892;2023-06-26T12:29:05;10.70;;;4.23;;
20101;SDS011;10210;52.284;9.892;2023-06-26T12:31:33;9.77;;;3.83;;
20101;SDS011;10210;52.284;9.892;2023-06-26T12:34:01;10.60;;;4.13;;
20101;SDS011;10210;52.284;9.892;2023-06-26T12:36:39;10.63;;;4.23;;
20101;SDS011;10210;52.284;9.892;2023-06-26T12:39:16;12.50;;;4.40;;
20101;SDS011;10210;52.284;9.892;2023-06-26T12:41:53;11.37;;;4.40;;
20101;SDS011;10210;52.284;9.892;2023-06-26T12:44:25;9.60;;;3.90;;
20101;SDS011;10210;52.284;9.892;2023-06-26T12:46:56;11.30;;;3.90;;
20101;SDS011;10210;52.284;9.892;2023-06-26T12:49:36;12.47;;;3.97;;
20101;SDS011;10210;52.284;9.892;2023-06-26T12:52:13;11.57;;;3.77;;
20101;SDS011;10210;52.284;9.892;2023-06-26T12:54:40;10.80;;;4.00;;
20101;SDS011;10210;52.284;9.892;2023-06-26T12:57:09;11.23;;;3.73;;
20101;SDS011;10210;52.284;9.892;2023-06-26T12:59:36;11.30;;;3.80;;
20101;SDS011;10210;52.284;9.892;2023-06-26T13:02:03;9.53;;;3.80;;
20101;SDS011;10210;52.284;9.892;2023-06-26T13:04:30;13.03;;;4.17;;
20101;SDS011;10210;52.284;9.892;2023-06-26T13:06:56;9.67;;;3.40;;
20101;SDS011;10210;52.284;9.892;2023-06-26T13:09:22;7.87;;;3.23;;
20101;SDS011;10210;52.284;9.892;2023-06-26T13:11:50;9.00;;;3.37;;
20101;SDS011;10210;52.284;9.892;2023-06-26T13:14:16;8.80;;;3.40;;
20101;SDS011;10210;52.284;9.892;2023-06-26T13:16:42;7.60;;;2.93;;
20101;SDS011;10210;52.284;9.892;2023-06-26T13:19:07;7.83;;;3.00;;
20101;SDS011;10210;52.284;9.892;2023-06-26T13:21:33;6.97;;;3.10;;
20101;SDS011;10210;52.284;9.892;2023-06-26T13:24:00;7.77;;;2.90;;
20101;SDS011;10210;52.284;9.892;2023-06-26T13:26:26;8.73;;;2.90;;
20101;SDS011;10210;52.284;9.892;2023-06-26T13:28:53;9.07;;;2.80;;
20101;SDS011;10210;52.284;9.892;2023-06-26T13:31:20;8.17;;;3.10;;
20101;SDS011;10210;52.284;9.892;2023-06-26T13:33:46;8.30;;;2.60;;
20101;SDS011;10210;52.284;9.892;2023-06-26T13:36:17;6.45;;;2.60;;
20101;SDS011;10210;52.284;9.892;2023-06-26T13:38:44;9.18;;;2.80;;
20101;SDS011;10210;52.284;9.892;2023-06-26T13:41:11;6.63;;;2.80;;
20101;SDS011;10210;52.284;9.892;2023-06-26T13:43:37;6.63;;;2.50;;
20101;SDS011;10210;52.284;9.892;2023-06-26T13:46:03;6.20;;;2.70;;
20101;SDS011;10210;52.284;9.892;2023-06-26T13:48:29;6.73;;;2.60;;
20101;SDS011;10210;52.284;9.892;2023-06-26T13:50:55;5.73;;;2.73;;
20101;SDS011;10210;52.284;9.892;2023-06-26T13:53:21;7.57;;;3.03;;
20101;SDS011;10210;52.284;9.892;2023-06-26T13:55:47;6.73;;;2.27;;
20101;SDS011;10210;52.284;9.892;2023-06-26T13:58:13;6.57;;;2.60;;
20101;SDS011;10210;52.284;9.892;2023-06-26T14:00:40;8.53;;;2.40;;
20101;SDS011;10210;52.284;9.892;2023-06-26T14:03:06;7.30;;;2.37;;
20101;SDS011;10210;52.284;9.892;2023-06-26T14:05:33;6.27;;;2.40;;
20101;SDS011;10210;52.284;9.892;2023-06-26T14:07:59;7.07;;;2.30;;
20101;SDS011;10210;52.284;9.892;2023-06-26T14:10:29;4.10;;;2.03;;
20101;SDS011;10210;52.284;9.892;2023-06-26T14:12:55;7.25;;;2.50;;
20101;SDS011;10210;52.284;9.892;2023-06-26T14:15:21;7.10;;;2.30;;
20101;SDS011;10210;52.284;9.892;2023-06-26T14:17:47;8.07;;;2.50;;
20101;SDS011;10210;52.284;9.892;2023-06-26T14:20:15;7.70;;;2.58;;
20101;SDS011;10210;52.284;9.892;2023-06-26T14:22:41;7.83;;;2.50;;
20101;SDS011;10210;52.284;9.892;2023-06-26T14:25:09;9.38;;;2.50;;
20101;SDS011;10210;52.284;9.892;2023-06-26T14:27:37;5.95;;;2.30;;
20101;SDS011;10210;52.284;9.892;2023-06-26T14:30:03;6.50;;;2.38;;
20101;SDS011;10210;52.284;9.892;2023-06-26T14:32:31;5.63;;;2.15;;
20101;SDS011;10210;52.284;9.892;2023-06-26T14:34:57;6.90;;;2.30;;
20101;SDS011;10210;52.284;9.892;2023-06-26T14:37:25;8.77;;;2.33;;
20101;SDS011;10210;52.284;9.892;2023-06-26T14:39:51;5.28;;;2.20;;
20101;SDS011;10210;52.284;9.892;2023-06-26T14:42:17;7.17;;;2.27;;
20101;SDS011;10210;52.284;9.892;2023-06-26T14:44:43;6.47;;;2.27;;
20101;SDS011;10210;52.284;9.892;2023-06-26T14:47:11;6.60;;;2.50;;
20101;SDS011;10210;52.284;9.892;2023-06-26T14:49:39;6.55;;;2.30;;
20101;SDS011;10210;52.284;9.892;2023-06-26T14:52:05;6.80;;;2.47;;
20101;SDS011;10210;52.284;9.892;2023-06-26T14:54:31;5.90;;;2.17;;
20101;SDS011;10210;52.284;9.892;2023-06-26T14:56:58;6.73;;;2.20;;
20101;SDS011;10210;52.284;9.892;2023-06-26T14:59:24;4.30;;;2.20;;